Terminal Aerodrome Forecast
Issued by NWS Upton, NY

Home | Current Version | Previous Version | Text Only | Print | Product List | Glossary On
Versions: 1 2 3 4 5 6 7 8 9 10 11 12 13 14 15 16 17 18 19 20 21 22 23 24 25 26 27 28
000
FTUS41 KOKX 251400 AAA
TAFISP
TAF AMD
KISP 251445Z 2515/2612 26015G22KT P6SM SCT040 BKN060
     FM251600 28019G33KT P6SM SCT080 BKN150
     FM251700 28019G33KT P6SM SCT050
     FM252100 28013G23KT P6SM SKC
     FM260000 28010KT P6SM SKC=

USA.gov is the U.S. government's official web portal to all federal, state and local government web resources and services.